sensor_id;sensor_type;location;lat;lon;timestamp;temperature;humidity
20728;DHT22;10525;50.154;8.198;2022-08-21T00:00:24;12.90;99.90
20728;DHT22;10525;50.154;8.198;2022-08-21T00:02:54;12.90;99.90
20728;DHT22;10525;50.154;8.198;2022-08-21T00:05:22;12.80;99.90
20728;DHT22;10525;50.154;8.198;2022-08-21T00:07:49;12.80;99.90
20728;DHT22;10525;50.154;8.198;2022-08-21T00:10:16;12.70;99.90
20728;DHT22;10525;50.154;8.198;2022-08-21T00:12:44;12.70;99.90
20728;DHT22;10525;50.154;8.198;2022-08-21T00:15:13;12.60;99.90
20728;DHT22;10525;50.154;8.198;2022-08-21T00:17:41;12.50;99.90
20728;DHT22;10525;50.154;8.198;2022-08-21T00:20:10;12.50;99.90
20728;DHT22;10525;50.154;8.198;2022-08-21T00:22:37;12.50;99.90
20728;DHT22;10525;50.154;8.198;2022-08-21T00:25:06;12.60;99.90
20728;DHT22;10525;50.154;8.198;2022-08-21T00:27:33;12.70;99.90
20728;DHT22;10525;50.154;8.198;2022-08-21T00:30:00;12.70;99.90
20728;DHT22;10525;50.154;8.198;2022-08-21T00:32:27;12.60;99.90
20728;DHT22;10525;50.154;8.198;2022-08-21T00:34:55;12.60;99.90
20728;DHT22;10525;50.154;8.198;2022-08-21T00:37:23;12.40;99.90
20728;DHT22;10525;50.154;8.198;2022-08-21T00:39:50;12.40;99.90
20728;DHT22;10525;50.154;8.198;2022-08-21T00:42:18;12.30;99.90
20728;DHT22;10525;50.154;8.198;2022-08-21T00:44:47;12.30;99.90
20728;DHT22;10525;50.154;8.198;2022-08-21T00:47:15;12.30;99.90
20728;DHT22;10525;50.154;8.198;2022-08-21T00:49:42;12.30;99.90
20728;DHT22;10525;50.154;8.198;2022-08-21T00:52:13;12.20;99.90
20728;DHT22;10525;50.154;8.198;2022-08-21T00:54:41;12.20;99.90
20728;DHT22;10525;50.154;8.198;2022-08-21T00:57:13;12.30;99.90
20728;DHT22;10525;50.154;8.198;2022-08-21T00:59:45;12.20;99.90
20728;DHT22;10525;50.154;8.198;2022-08-21T01:02:12;12.20;99.90
20728;DHT22;10525;50.154;8.198;2022-08-21T01:04:39;12.20;99.90
20728;DHT22;10525;50.154;8.198;2022-08-21T01:07:06;12.20;99.90
20728;DHT22;10525;50.154;8.198;2022-08-21T01:09:35;12.10;99.90
20728;DHT22;10525;50.154;8.198;2022-08-21T01:12:03;12.10;99.90
20728;DHT22;10525;50.154;8.198;2022-08-21T01:14:30;12.10;99.90
20728;DHT22;10525;50.154;8.198;2022-08-21T01:16:58;12.10;99.90
20728;DHT22;10525;50.154;8.198;2022-08-21T01:19:26;12.10;99.90
20728;DHT22;10525;50.154;8.198;2022-08-21T01:21:54;12.10;99.90
20728;DHT22;10525;50.154;8.198;2022-08-21T01:24:21;12.10;99.90
20728;DHT22;10525;50.154;8.198;2022-08-21T01:26:49;12.00;99.90
20728;DHT22;10525;50.154;8.198;2022-08-21T01:29:26;11.90;99.90
20728;DHT22;10525;50.154;8.198;2022-08-21T01:31:55;11.90;99.90
20728;DHT22;10525;50.154;8.198;2022-08-21T01:34:22;11.90;99.90
20728;DHT22;10525;50.154;8.198;2022-08-21T01:36:49;11.80;99.90
20728;DHT22;10525;50.154;8.198;2022-08-21T01:39:17;11.90;99.90
20728;DHT22;10525;50.154;8.198;2022-08-21T01:41:44;11.90;99.90
20728;DHT22;10525;50.154;8.198;2022-08-21T01:44:11;11.90;99.90
20728;DHT22;10525;50.154;8.198;2022-08-21T01:46:38;11.90;99.90
20728;DHT22;10525;50.154;8.198;2022-08-21T01:49:05;11.90;99.90
20728;DHT22;10525;50.154;8.198;2022-08-21T01:51:32;11.80;99.90
20728;DHT22;10525;50.154;8.198;2022-08-21T01:53:59;11.90;99.90
20728;DHT22;10525;50.154;8.198;2022-08-21T01:56:27;11.80;99.90
20728;DHT22;10525;50.154;8.198;2022-08-21T01:59:00;11.80;99.90
20728;DHT22;10525;50.154;8.198;2022-08-21T02:01:27;11.70;99.90
20728;DHT22;10525;50.154;8.198;2022-08-21T02:03:54;11.70;99.90
20728;DHT22;10525;50.154;8.198;2022-08-21T02:06:20;11.60;99.90
20728;DHT22;10525;50.154;8.198;2022-08-21T02:08:47;11.60;99.90
20728;DHT22;10525;50.154;8.198;2022-08-21T02:11:16;11.60;99.90
20728;DHT22;10525;50.154;8.198;2022-08-21T02:13:44;11.50;99.90
20728;DHT22;10525;50.154;8.198;2022-08-21T02:16:11;11.50;99.90
20728;DHT22;10525;50.154;8.198;2022-08-21T02:18:38;11.50;99.90
20728;DHT22;10525;50.154;8.198;2022-08-21T02:21:05;11.50;99.90
20728;DHT22;10525;50.154;8.198;2022-08-21T02:23:32;11.60;99.90
20728;DHT22;10525;50.154;8.198;2022-08-21T02:26:00;11.50;99.90
20728;DHT22;10525;50.154;8.198;2022-08-21T02:28:27;11.40;99.90
20728;DHT22;10525;50.154;8.198;2022-08-21T02:30:56;11.40;99.90
20728;DHT22;10525;50.154;8.198;2022-08-21T02:33:23;11.40;99.90
20728;DHT22;10525;50.154;8.198;2022-08-21T02:35:51;11.30;99.90
20728;DHT22;10525;50.154;8.198;2022-08-21T02:38:20;11.30;99.90
20728;DHT22;10525;50.154;8.198;2022-08-21T02:40:49;11.30;99.90
20728;DHT22;10525;50.154;8.198;2022-08-21T02:43:17;11.20;99.90
20728;DHT22;10525;50.154;8.198;2022-08-21T02:45:45;11.20;99.90
20728;DHT22;10525;50.154;8.198;2022-08-21T02:48:15;11.20;99.90
20728;DHT22;10525;50.154;8.198;2022-08-21T02:50:44;11.20;99.90
20728;DHT22;10525;50.154;8.198;2022-08-21T02:53:12;11.20;99.90
20728;DHT22;10525;50.154;8.198;2022-08-21T02:55:42;11.10;99.90
20728;DHT22;10525;50.154;8.198;2022-08-21T02:58:10;11.10;99.90
20728;DHT22;10525;50.154;8.198;2022-08-21T03:00:38;11.00;99.90
20728;DHT22;10525;50.154;8.198;2022-08-21T03:03:05;11.00;99.90
20728;DHT22;10525;50.154;8.198;2022-08-21T03:05:34;11.00;99.90
20728;DHT22;10525;50.154;8.198;2022-08-21T03:08:04;10.90;99.90
20728;DHT22;10525;50.154;8.198;2022-08-21T03:10:32;10.90;99.90
20728;DHT22;10525;50.154;8.198;2022-08-21T03:12:59;10.90;99.90
20728;DHT22;10525;50.154;8.198;2022-08-21T03:15:25;10.80;99.90
20728;DHT22;10525;50.154;8.198;2022-08-21T03:17:52;10.80;99.90
20728;DHT22;10525;50.154;8.198;2022-08-21T03:20:21;10.90;99.90
20728;DHT22;10525;50.154;8.198;2022-08-21T03:22:50;10.90;99.90
20728;DHT22;10525;50.154;8.198;2022-08-21T03:25:17;10.90;99.90
20728;DHT22;10525;50.154;8.198;2022-08-21T03:27:44;10.90;99.90
20728;DHT22;10525;50.154;8.198;2022-08-21T03:30:11;11.10;99.90
20728;DHT22;10525;50.154;8.198;2022-08-21T03:32:38;11.00;99.90
20728;DHT22;10525;50.154;8.198;2022-08-21T03:35:07;11.00;99.90
20728;DHT22;10525;50.154;8.198;2022-08-21T03:37:34;10.80;99.90
20728;DHT22;10525;50.154;8.198;2022-08-21T03:40:03;10.80;99.90
20728;DHT22;10525;50.154;8.198;2022-08-21T03:42:29;10.80;99.90
20728;DHT22;10525;50.154;8.198;2022-08-21T03:44:56;10.80;99.90
20728;DHT22;10525;50.154;8.198;2022-08-21T03:47:23;10.70;99.90
20728;DHT22;10525;50.154;8.198;2022-08-21T03:49:49;10.60;99.90
20728;DHT22;10525;50.154;8.198;2022-08-21T03:52:16;10.60;99.90
20728;DHT22;10525;50.154;8.198;2022-08-21T03:54:43;10.50;99.90
20728;DHT22;10525;50.154;8.198;2022-08-21T03:57:12;10.50;99.90
20728;DHT22;10525;50.154;8.198;2022-08-21T03:59:38;10.60;99.90
20728;DHT22;10525;50.154;8.198;2022-08-21T04:02:06;10.60;99.90
20728;DHT22;10525;50.154;8.198;2022-08-21T04:04:34;10.50;99.90
20728;DHT22;10525;50.154;8.198;2022-08-21T04:07:01;10.50;99.90
20728;DHT22;10525;50.154;8.198;2022-08-21T04:09:28;10.50;99.90
20728;DHT22;10525;50.154;8.198;2022-08-21T04:11:56;10.40;99.90
20728;DHT22;10525;50.154;8.198;2022-08-21T04:14:24;10.40;99.90
20728;DHT22;10525;50.154;8.198;2022-08-21T04:16:51;10.40;99.90
20728;DHT22;10525;50.154;8.198;2022-08-21T04:19:18;10.40;99.90
20728;DHT22;10525;50.154;8.198;2022-08-21T04:21:44;10.30;99.90
20728;DHT22;10525;50.154;8.198;2022-08-21T04:24:11;10.30;99.90
20728;DHT22;10525;50.154;8.198;2022-08-21T04:26:38;10.30;99.90
20728;DHT22;10525;50.154;8.198;2022-08-21T04:29:05;10.30;99.90
20728;DHT22;10525;50.154;8.198;2022-08-21T04:31:35;10.30;99.90
20728;DHT22;10525;50.154;8.198;2022-08-21T04:34:02;10.30;99.90
20728;DHT22;10525;50.154;8.198;2022-08-21T04:36:28;10.50;99.90
20728;DHT22;10525;50.154;8.198;2022-08-21T04:38:55;10.40;99.90
20728;DHT22;10525;50.154;8.198;2022-08-21T04:41:22;10.50;99.90
20728;DHT22;10525;50.154;8.198;2022-08-21T04:43:48;10.50;99.90
20728;DHT22;10525;50.154;8.198;2022-08-21T04:46:15;10.60;99.90
20728;DHT22;10525;50.154;8.198;2022-08-21T04:48:44;10.70;99.90
20728;DHT22;10525;50.154;8.198;2022-08-21T04:51:13;10.80;99.90
20728;DHT22;10525;50.154;8.198;2022-08-21T04:53:44;10.80;99.90
20728;DHT22;10525;50.154;8.198;2022-08-21T04:56:14;10.70;99.90
20728;DHT22;10525;50.154;8.198;2022-08-21T04:58:42;10.60;99.90
20728;DHT22;10525;50.154;8.198;2022-08-21T05:01:14;10.70;99.90
20728;DHT22;10525;50.154;8.198;2022-08-21T05:03:43;10.70;99.90
20728;DHT22;10525;50.154;8.198;2022-08-21T05:06:12;10.80;99.90
20728;DHT22;10525;50.154;8.198;2022-08-21T05:08:40;10.90;99.90
20728;DHT22;10525;50.154;8.198;2022-08-21T05:11:09;10.90;99.90
20728;DHT22;10525;50.154;8.198;2022-08-21T05:13:36;11.00;99.90
20728;DHT22;10525;50.154;8.198;2022-08-21T05:16:03;11.00;99.90
20728;DHT22;10525;50.154;8.198;2022-08-21T05:18:29;11.10;99.90
20728;DHT22;10525;50.154;8.198;2022-08-21T05:20:58;11.20;99.90
20728;DHT22;10525;50.154;8.198;2022-08-21T05:23:25;11.20;99.90
20728;DHT22;10525;50.154;8.198;2022-08-21T05:25:52;11.20;99.90
20728;DHT22;10525;50.154;8.198;2022-08-21T05:28:20;11.30;99.90
20728;DHT22;10525;50.154;8.198;2022-08-21T05:30:47;11.40;99.90
20728;DHT22;10525;50.154;8.198;2022-08-21T05:33:14;11.60;99.90
20728;DHT22;10525;50.154;8.198;2022-08-21T05:35:41;11.50;99.90
20728;DHT22;10525;50.154;8.198;2022-08-21T05:38:09;11.60;99.90
20728;DHT22;10525;50.154;8.198;2022-08-21T05:40:36;11.60;99.90
20728;DHT22;10525;50.154;8.198;2022-08-21T05:43:02;11.70;99.90
20728;DHT22;10525;50.154;8.198;2022-08-21T05:45:31;11.90;99.90
20728;DHT22;10525;50.154;8.198;2022-08-21T05:48:05;12.00;99.90
20728;DHT22;10525;50.154;8.198;2022-08-21T05:50:33;12.20;99.90
20728;DHT22;10525;50.154;8.198;2022-08-21T05:53:00;12.40;99.90
20728;DHT22;10525;50.154;8.198;2022-08-21T05:55:28;12.40;99.90
20728;DHT22;10525;50.154;8.198;2022-08-21T05:57:55;12.60;99.90
20728;DHT22;10525;50.154;8.198;2022-08-21T06:00:22;12.60;99.90
20728;DHT22;10525;50.154;8.198;2022-08-21T06:02:49;12.70;99.90
20728;DHT22;10525;50.154;8.198;2022-08-21T06:05:16;12.90;99.90
20728;DHT22;10525;50.154;8.198;2022-08-21T06:07:44;13.00;99.90
20728;DHT22;10525;50.154;8.198;2022-08-21T06:10:11;13.20;99.90
20728;DHT22;10525;50.154;8.198;2022-08-21T06:12:39;13.30;99.90
20728;DHT22;10525;50.154;8.198;2022-08-21T06:15:07;13.50;99.90
20728;DHT22;10525;50.154;8.198;2022-08-21T06:17:33;13.60;99.90
20728;DHT22;10525;50.154;8.198;2022-08-21T06:20:00;13.70;99.90
20728;DHT22;10525;50.154;8.198;2022-08-21T06:22:27;13.80;99.90
20728;DHT22;10525;50.154;8.198;2022-08-21T06:24:54;14.10;99.90
20728;DHT22;10525;50.154;8.198;2022-08-21T06:27:20;14.20;99.90
20728;DHT22;10525;50.154;8.198;2022-08-21T06:29:48;14.30;99.90
20728;DHT22;10525;50.154;8.198;2022-08-21T06:32:15;14.50;99.90
20728;DHT22;10525;50.154;8.198;2022-08-21T06:34:42;14.70;99.90
20728;DHT22;10525;50.154;8.198;2022-08-21T06:37:08;14.90;99.90
20728;DHT22;10525;50.154;8.198;2022-08-21T06:39:35;15.10;99.90
20728;DHT22;10525;50.154;8.198;2022-08-21T06:42:02;15.30;99.90
20728;DHT22;10525;50.154;8.198;2022-08-21T06:44:29;15.50;99.90
20728;DHT22;10525;50.154;8.198;2022-08-21T06:47:00;15.60;99.90
20728;DHT22;10525;50.154;8.198;2022-08-21T06:49:27;15.80;99.90
20728;DHT22;10525;50.154;8.198;2022-08-21T06:51:54;15.90;99.90
20728;DHT22;10525;50.154;8.198;2022-08-21T06:54:20;16.10;99.90
20728;DHT22;10525;50.154;8.198;2022-08-21T06:56:47;16.30;99.90
20728;DHT22;10525;50.154;8.198;2022-08-21T06:59:14;16.50;99.90
20728;DHT22;10525;50.154;8.198;2022-08-21T07:01:40;16.70;99.90
20728;DHT22;10525;50.154;8.198;2022-08-21T07:04:08;16.90;99.90
20728;DHT22;10525;50.154;8.198;2022-08-21T07:06:35;17.10;99.90
20728;DHT22;10525;50.154;8.198;2022-08-21T07:09:03;17.30;99.90
20728;DHT22;10525;50.154;8.198;2022-08-21T07:11:29;17.40;99.90
20728;DHT22;10525;50.154;8.198;2022-08-21T07:13:56;17.60;99.90
20728;DHT22;10525;50.154;8.198;2022-08-21T07:16:24;17.70;99.90
20728;DHT22;10525;50.154;8.198;2022-08-21T07:18:50;18.00;99.90
20728;DHT22;10525;50.154;8.198;2022-08-21T07:21:18;18.00;99.90
20728;DHT22;10525;50.154;8.198;2022-08-21T07:23:47;18.10;99.90
20728;DHT22;10525;50.154;8.198;2022-08-21T07:26:17;18.30;99.90
20728;DHT22;10525;50.154;8.198;2022-08-21T07:28:46;18.50;99.90
20728;DHT22;10525;50.154;8.198;2022-08-21T07:31:15;18.70;99.90
20728;DHT22;10525;50.154;8.198;2022-08-21T07:33:43;18.70;99.90
20728;DHT22;10525;50.154;8.198;2022-08-21T07:36:10;18.70;99.90
20728;DHT22;10525;50.154;8.198;2022-08-21T07:38:38;19.00;99.90
20728;DHT22;10525;50.154;8.198;2022-08-21T07:41:15;19.20;99.90
20728;DHT22;10525;50.154;8.198;2022-08-21T07:43:43;19.30;99.90
20728;DHT22;10525;50.154;8.198;2022-08-21T07:46:09;19.40;99.90
20728;DHT22;10525;50.154;8.198;2022-08-21T07:48:37;19.50;99.90
20728;DHT22;10525;50.154;8.198;2022-08-21T07:51:07;19.60;99.90
20728;DHT22;10525;50.154;8.198;2022-08-21T07:53:34;19.70;99.90
20728;DHT22;10525;50.154;8.198;2022-08-21T07:56:03;19.80;99.90
20728;DHT22;10525;50.154;8.198;2022-08-21T07:58:30;19.90;99.90
20728;DHT22;10525;50.154;8.198;2022-08-21T08:00:57;20.00;99.90
20728;DHT22;10525;50.154;8.198;2022-08-21T08:03:24;20.10;99.90
20728;DHT22;10525;50.154;8.198;2022-08-21T08:05:51;20.10;99.90
20728;DHT22;10525;50.154;8.198;2022-08-21T08:08:17;20.20;99.90
20728;DHT22;10525;50.154;8.198;2022-08-21T08:10:45;20.30;99.90
20728;DHT22;10525;50.154;8.198;2022-08-21T08:13:13;20.40;99.90
20728;DHT22;10525;50.154;8.198;2022-08-21T08:15:39;20.60;99.90
20728;DHT22;10525;50.154;8.198;2022-08-21T08:18:06;20.70;99.90
20728;DHT22;10525;50.154;8.198;2022-08-21T08:20:33;20.80;99.90
20728;DHT22;10525;50.154;8.198;2022-08-21T08:23:00;20.80;99.90
20728;DHT22;10525;50.154;8.198;2022-08-21T08:25:27;20.90;99.90
20728;DHT22;10525;50.154;8.198;2022-08-21T08:27:54;21.10;99.90
20728;DHT22;10525;50.154;8.198;2022-08-21T08:30:22;21.20;99.90
20728;DHT22;10525;50.154;8.198;2022-08-21T08:32:49;21.30;99.90
20728;DHT22;10525;50.154;8.198;2022-08-21T08:35:17;21.40;99.90
20728;DHT22;10525;50.154;8.198;2022-08-21T08:37:44;21.50;99.90
20728;DHT22;10525;50.154;8.198;2022-08-21T08:40:13;21.70;99.90
20728;DHT22;10525;50.154;8.198;2022-08-21T08:42:40;21.70;99.90
20728;DHT22;10525;50.154;8.198;2022-08-21T08:45:09;21.70;99.90
20728;DHT22;10525;50.154;8.198;2022-08-21T08:47:40;21.80;99.90
20728;DHT22;10525;50.154;8.198;2022-08-21T08:50:12;21.60;99.90
20728;DHT22;10525;50.154;8.198;2022-08-21T08:52:42;21.70;99.90
20728;DHT22;10525;50.154;8.198;2022-08-21T08:55:13;21.80;99.90
20728;DHT22;10525;50.154;8.198;2022-08-21T08:57:44;21.70;99.90
20728;DHT22;10525;50.154;8.198;2022-08-21T09:00:14;21.70;99.90
20728;DHT22;10525;50.154;8.198;2022-08-21T09:02:44;21.80;99.90
20728;DHT22;10525;50.154;8.198;2022-08-21T09:05:19;21.80;99.90
20728;DHT22;10525;50.154;8.198;2022-08-21T09:07:56;21.90;99.90
20728;DHT22;10525;50.154;8.198;2022-08-21T09:10:34;22.00;99.90
20728;DHT22;10525;50.154;8.198;2022-08-21T09:13:19;22.00;99.90
20728;DHT22;10525;50.154;8.198;2022-08-21T09:15:55;22.00;99.90
20728;DHT22;10525;50.154;8.198;2022-08-21T09:18:33;22.20;99.90
20728;DHT22;10525;50.154;8.198;2022-08-21T09:21:11;22.50;99.90
20728;DHT22;10525;50.154;8.198;2022-08-21T09:23:47;22.40;99.90
20728;DHT22;10525;50.154;8.198;2022-08-21T09:26:19;22.40;99.90
20728;DHT22;10525;50.154;8.198;2022-08-21T09:28:46;22.50;99.90
20728;DHT22;10525;50.154;8.198;2022-08-21T09:31:22;22.30;99.90
20728;DHT22;10525;50.154;8.198;2022-08-21T09:33:57;22.30;99.90
20728;DHT22;10525;50.154;8.198;2022-08-21T09:36:41;22.60;99.90
20728;DHT22;10525;50.154;8.198;2022-08-21T09:39:10;22.80;99.90
20728;DHT22;10525;50.154;8.198;2022-08-21T09:41:38;23.20;99.90
20728;DHT22;10525;50.154;8.198;2022-08-21T09:44:07;23.60;99.90
20728;DHT22;10525;50.154;8.198;2022-08-21T09:46:34;23.70;99.90
20728;DHT22;10525;50.154;8.198;2022-08-21T09:49:03;23.70;99.90
20728;DHT22;10525;50.154;8.198;2022-08-21T09:51:32;23.60;99.90
20728;DHT22;10525;50.154;8.198;2022-08-21T09:54:12;23.50;99.90
20728;DHT22;10525;50.154;8.198;2022-08-21T09:56:52;23.50;99.90
20728;DHT22;10525;50.154;8.198;2022-08-21T09:59:39;23.50;99.90
20728;DHT22;10525;50.154;8.198;2022-08-21T10:02:22;23.20;99.90
20728;DHT22;10525;50.154;8.198;2022-08-21T10:04:52;23.10;99.90
20728;DHT22;10525;50.154;8.198;2022-08-21T10:07:21;23.10;99.90
20728;DHT22;10525;50.154;8.198;2022-08-21T10:09:58;23.00;99.90
20728;DHT22;10525;50.154;8.198;2022-08-21T10:12:31;22.90;99.90
20728;DHT22;10525;50.154;8.198;2022-08-21T10:15:04;22.80;99.90
20728;DHT22;10525;50.154;8.198;2022-08-21T10:17:37;23.10;99.90
20728;DHT22;10525;50.154;8.198;2022-08-21T10:20:08;23.40;99.90
20728;DHT22;10525;50.154;8.198;2022-08-21T10:22:41;23.80;99.90
20728;DHT22;10525;50.154;8.198;2022-08-21T10:25:18;24.00;99.90
20728;DHT22;10525;50.154;8.198;2022-08-21T10:27:55;24.20;99.90
20728;DHT22;10525;50.154;8.198;2022-08-21T10:30:34;24.20;99.90
20728;DHT22;10525;50.154;8.198;2022-08-21T10:33:13;23.90;99.90
20728;DHT22;10525;50.154;8.198;2022-08-21T10:35:51;23.90;99.90
20728;DHT22;10525;50.154;8.198;2022-08-21T10:38:49;23.90;99.90
20728;DHT22;10525;50.154;8.198;2022-08-21T10:41:28;23.90;99.90
20728;DHT22;10525;50.154;8.198;2022-08-21T10:44:03;24.00;99.90
20728;DHT22;10525;50.154;8.198;2022-08-21T10:46:42;24.00;99.90
20728;DHT22;10525;50.154;8.198;2022-08-21T10:49:20;24.10;99.90
20728;DHT22;10525;50.154;8.198;2022-08-21T10:51:55;24.20;99.90
20728;DHT22;10525;50.154;8.198;2022-08-21T10:54:32;24.10;99.90
20728;DHT22;10525;50.154;8.198;2022-08-21T10:57:18;24.00;99.90
20728;DHT22;10525;50.154;8.198;2022-08-21T10:59:49;23.90;99.90
20728;DHT22;10525;50.154;8.198;2022-08-21T11:02:22;24.00;99.90
20728;DHT22;10525;50.154;8.198;2022-08-21T11:04:56;24.20;99.90
20728;DHT22;10525;50.154;8.198;2022-08-21T11:07:30;24.20;99.90
20728;DHT22;10525;50.154;8.198;2022-08-21T11:10:04;24.60;99.90
20728;DHT22;10525;50.154;8.198;2022-08-21T11:12:38;24.70;99.90
20728;DHT22;10525;50.154;8.198;2022-08-21T11:15:15;24.60;99.90
20728;DHT22;10525;50.154;8.198;2022-08-21T11:17:49;24.60;99.90
20728;DHT22;10525;50.154;8.198;2022-08-21T11:20:24;24.70;99.90
20728;DHT22;10525;50.154;8.198;2022-08-21T11:23:00;24.80;99.90
20728;DHT22;10525;50.154;8.198;2022-08-21T11:25:32;25.00;99.90
20728;DHT22;10525;50.154;8.198;2022-08-21T11:28:03;24.90;99.90
20728;DHT22;10525;50.154;8.198;2022-08-21T11:30:38;24.90;99.90
20728;DHT22;10525;50.154;8.198;2022-08-21T11:33:14;25.00;99.90
20728;DHT22;10525;50.154;8.198;2022-08-21T11:35:48;25.10;99.90
20728;DHT22;10525;50.154;8.198;2022-08-21T11:38:27;25.40;99.90
20728;DHT22;10525;50.154;8.198;2022-08-21T11:41:05;25.10;99.90
20728;DHT22;10525;50.154;8.198;2022-08-21T11:43:38;25.40;99.90
20728;DHT22;10525;50.154;8.198;2022-08-21T11:46:15;25.40;99.90
20728;DHT22;10525;50.154;8.198;2022-08-21T11:48:53;25.40;99.90
20728;DHT22;10525;50.154;8.198;2022-08-21T11:51:29;25.10;99.90
20728;DHT22;10525;50.154;8.198;2022-08-21T11:54:05;25.00;99.90
20728;DHT22;10525;50.154;8.198;2022-08-21T11:56:37;25.00;99.90
20728;DHT22;10525;50.154;8.198;2022-08-21T11:59:11;25.00;99.90
20728;DHT22;10525;50.154;8.198;2022-08-21T12:01:41;25.00;99.90
20728;DHT22;10525;50.154;8.198;2022-08-21T12:04:22;25.00;99.90
20728;DHT22;10525;50.154;8.198;2022-08-21T12:06:51;25.00;99.90
20728;DHT22;10525;50.154;8.198;2022-08-21T12:09:33;25.10;99.90
20728;DHT22;10525;50.154;8.198;2022-08-21T12:12:05;25.00;99.90
20728;DHT22;10525;50.154;8.198;2022-08-21T12:14:38;25.30;99.90
20728;DHT22;10525;50.154;8.198;2022-08-21T12:17:08;25.60;99.90
20728;DHT22;10525;50.154;8.198;2022-08-21T12:19:35;25.60;99.90
20728;DHT22;10525;50.154;8.198;2022-08-21T12:22:10;25.70;99.90
20728;DHT22;10525;50.154;8.198;2022-08-21T12:24:41;25.70;99.90
20728;DHT22;10525;50.154;8.198;2022-08-21T12:27:27;25.70;99.90
20728;DHT22;10525;50.154;8.198;2022-08-21T12:30:00;25.40;99.90
20728;DHT22;10525;50.154;8.198;2022-08-21T12:32:29;25.30;99.90
20728;DHT22;10525;50.154;8.198;2022-08-21T12:35:06;25.00;99.90
20728;DHT22;10525;50.154;8.198;2022-08-21T12:37:37;24.70;99.90
20728;DHT22;10525;50.154;8.198;2022-08-21T12:40:11;24.90;99.90
20728;DHT22;10525;50.154;8.198;2022-08-21T12:42:43;24.90;99.90
20728;DHT22;10525;50.154;8.198;2022-08-21T12:45:17;24.90;99.90
20728;DHT22;10525;50.154;8.198;2022-08-21T12:47:48;25.00;99.90
20728;DHT22;10525;50.154;8.198;2022-08-21T12:50:21;25.00;99.90
20728;DHT22;10525;50.154;8.198;2022-08-21T12:52:55;25.00;99.90
20728;DHT22;10525;50.154;8.198;2022-08-21T12:55:30;25.30;99.90
20728;DHT22;10525;50.154;8.198;2022-08-21T12:57:57;25.30;99.90
20728;DHT22;10525;50.154;8.198;2022-08-21T13:00:26;25.50;99.90
20728;DHT22;10525;50.154;8.198;2022-08-21T13:02:55;25.60;99.90
20728;DHT22;10525;50.154;8.198;2022-08-21T13:05:28;25.70;99.90
20728;DHT22;10525;50.154;8.198;2022-08-21T13:07:56;25.90;99.90
20728;DHT22;10525;50.154;8.198;2022-08-21T13:10:26;26.00;99.90
20728;DHT22;10525;50.154;8.198;2022-08-21T13:12:59;26.20;99.90
20728;DHT22;10525;50.154;8.198;2022-08-21T13:15:30;26.30;99.90
20728;DHT22;10525;50.154;8.198;2022-08-21T13:17:58;26.30;99.90
20728;DHT22;10525;50.154;8.198;2022-08-21T13:20:30;26.10;99.90
20728;DHT22;10525;50.154;8.198;2022-08-21T13:22:57;26.10;99.90
20728;DHT22;10525;50.154;8.198;2022-08-21T13:25:27;26.00;99.90
20728;DHT22;10525;50.154;8.198;2022-08-21T13:28:05;25.90;99.90
20728;DHT22;10525;50.154;8.198;2022-08-21T13:30:32;26.10;99.90
20728;DHT22;10525;50.154;8.198;2022-08-21T13:33:01;26.30;99.90
20728;DHT22;10525;50.154;8.198;2022-08-21T13:35:31;26.40;99.90
20728;DHT22;10525;50.154;8.198;2022-08-21T13:38:01;26.60;99.90
20728;DHT22;10525;50.154;8.198;2022-08-21T13:40:31;26.30;99.90
20728;DHT22;10525;50.154;8.198;2022-08-21T13:43:00;26.10;99.90
20728;DHT22;10525;50.154;8.198;2022-08-21T13:45:31;26.10;99.90
20728;DHT22;10525;50.154;8.198;2022-08-21T13:47:59;26.00;99.90
20728;DHT22;10525;50.154;8.198;2022-08-21T13:50:27;25.90;99.90
20728;DHT22;10525;50.154;8.198;2022-08-21T13:52:58;25.90;99.90
20728;DHT22;10525;50.154;8.198;2022-08-21T13:55:34;25.90;99.90
20728;DHT22;10525;50.154;8.198;2022-08-21T13:58:04;26.00;99.90
20728;DHT22;10525;50.154;8.198;2022-08-21T14:00:32;26.00;99.90
20728;DHT22;10525;50.154;8.198;2022-08-21T14:03:03;26.20;99.90
20728;DHT22;10525;50.154;8.198;2022-08-21T14:05:34;26.40;99.90
20728;DHT22;10525;50.154;8.198;2022-08-21T14:08:05;26.20;99.90
20728;DHT22;10525;50.154;8.198;2022-08-21T14:10:36;26.00;99.90
20728;DHT22;10525;50.154;8.198;2022-08-21T14:13:06;25.70;99.90
20728;DHT22;10525;50.154;8.198;2022-08-21T14:15:34;25.80;99.90
20728;DHT22;10525;50.154;8.198;2022-08-21T14:18:09;25.90;99.90
20728;DHT22;10525;50.154;8.198;2022-08-21T14:20:39;25.70;99.90
20728;DHT22;10525;50.154;8.198;2022-08-21T14:23:06;25.60;99.90
20728;DHT22;10525;50.154;8.198;2022-08-21T14:25:39;25.70;99.90
20728;DHT22;10525;50.154;8.198;2022-08-21T14:28:15;25.50;99.90
20728;DHT22;10525;50.154;8.198;2022-08-21T14:30:45;25.50;99.90
20728;DHT22;10525;50.154;8.198;2022-08-21T14:33:18;25.70;99.90
20728;DHT22;10525;50.154;8.198;2022-08-21T14:35:45;25.80;99.90
20728;DHT22;10525;50.154;8.198;2022-08-21T14:38:13;25.90;99.90
20728;DHT22;10525;50.154;8.198;2022-08-21T14:40:40;26.00;99.90
20728;DHT22;10525;50.154;8.198;2022-08-21T14:43:07;26.10;99.90
20728;DHT22;10525;50.154;8.198;2022-08-21T14:45:36;26.20;99.90
20728;DHT22;10525;50.154;8.198;2022-08-21T14:48:06;26.30;99.90
20728;DHT22;10525;50.154;8.198;2022-08-21T14:50:33;26.30;99.90
20728;DHT22;10525;50.154;8.198;2022-08-21T14:53:00;26.40;99.90
20728;DHT22;10525;50.154;8.198;2022-08-21T14:55:27;26.40;99.90
20728;DHT22;10525;50.154;8.198;2022-08-21T14:57:55;26.50;99.90
20728;DHT22;10525;50.154;8.198;2022-08-21T15:00:24;26.20;99.90
20728;DHT22;10525;50.154;8.198;2022-08-21T15:02:52;26.30;99.90
20728;DHT22;10525;50.154;8.198;2022-08-21T15:05:19;26.10;99.90
20728;DHT22;10525;50.154;8.198;2022-08-21T15:07:46;26.00;99.90
20728;DHT22;10525;50.154;8.198;2022-08-21T15:10:13;26.00;99.90
20728;DHT22;10525;50.154;8.198;2022-08-21T15:12:40;26.00;99.90
20728;DHT22;10525;50.154;8.198;2022-08-21T15:15:07;25.80;99.90
20728;DHT22;10525;50.154;8.198;2022-08-21T15:17:35;25.80;99.90
20728;DHT22;10525;50.154;8.198;2022-08-21T15:20:04;25.70;99.90
20728;DHT22;10525;50.154;8.198;2022-08-21T15:22:32;25.70;99.90
20728;DHT22;10525;50.154;8.198;2022-08-21T15:24:58;25.80;99.90
20728;DHT22;10525;50.154;8.198;2022-08-21T15:27:26;25.90;99.90
20728;DHT22;10525;50.154;8.198;2022-08-21T15:29:53;25.60;99.90
20728;DHT22;10525;50.154;8.198;2022-08-21T15:32:22;25.80;99.90
20728;DHT22;10525;50.154;8.198;2022-08-21T15:34:49;25.80;99.90
20728;DHT22;10525;50.154;8.198;2022-08-21T15:37:18;25.80;99.90
20728;DHT22;10525;50.154;8.198;2022-08-21T15:39:45;25.90;99.90
20728;DHT22;10525;50.154;8.198;2022-08-21T15:42:12;25.80;99.90
20728;DHT22;10525;50.154;8.198;2022-08-21T15:44:40;25.80;99.90